createdAt,value
2017-11-30T00:08:19.219Z,8.00
2017-11-30T00:28:54.184Z,11.00
2017-11-30T00:49:25.466Z,8.80
2017-11-30T01:10:00.734Z,8.00
2017-11-30T01:30:33.857Z,7.90
2017-11-30T01:51:10.049Z,8.03
2017-11-30T02:11:46.685Z,8.30
2017-11-30T02:32:23.773Z,6.10
2017-11-30T02:52:58.932Z,4.37
2017-11-30T03:13:30.217Z,6.40
2017-11-30T03:34:05.484Z,7.55
2017-11-30T03:54:39.529Z,8.03
2017-11-30T04:15:15.721Z,7.30
2017-11-30T04:35:53.304Z,9.13
2017-11-30T04:56:29.337Z,9.90
2017-11-30T05:17:02.470Z,9.83
2017-11-30T05:37:38.656Z,12.63
2017-11-30T05:58:13.005Z,11.00
2017-11-30T06:18:44.279Z,10.17
2017-11-30T06:39:19.249Z,17.70
2017-11-30T06:59:56.019Z,21.00
2017-11-30T07:20:32.860Z,15.70
2017-11-30T07:41:09.393Z,12.85
2017-11-30T08:01:43.400Z,14.90
2017-11-30T08:22:16.525Z,15.43
2017-11-30T08:42:51.793Z,13.87
2017-11-30T09:03:27.982Z,17.50
2017-11-30T09:24:00.186Z,18.80
2017-11-30T09:44:35.464Z,4.80
2017-11-30T10:05:09.915Z,4.97
2017-11-30T10:25:48.185Z,8.23
2017-11-30T10:46:21.395Z,10.00
2017-11-30T11:06:56.626Z,13.10
2017-11-30T11:27:33.656Z,11.63
2017-11-30T11:48:08.933Z,13.70
2017-11-30T12:08:43.326Z,14.90
2017-11-30T12:29:18.311Z,10.10
2017-11-30T12:49:53.553Z,8.10
2017-11-30T13:10:30.629Z,14.00
2017-11-30T13:31:08.664Z,9.77
2017-11-30T13:51:43.320Z,8.23
2017-11-30T14:12:16.437Z,9.77
2017-11-30T14:32:50.485Z,4.60
2017-11-30T14:53:26.174Z,1.80
2017-11-30T15:14:05.025Z,1.57
2017-11-30T15:34:37.525Z,1.90
2017-11-30T15:55:12.800Z,5.47
2017-11-30T16:15:45.924Z,3.60
2017-11-30T16:36:22.123Z,3.07
2017-11-30T16:56:59.225Z,3.90
2017-11-30T17:17:34.492Z,6.83
2017-11-30T17:38:09.036Z,5.10
2017-11-30T17:58:44.266Z,9.43
2017-11-30T18:19:19.086Z,9.43
2017-11-30T18:39:54.730Z,7.07
2017-11-30T19:00:30.547Z,9.77
2017-11-30T19:21:04.899Z,10.80
2017-11-30T19:41:40.439Z,11.43
2017-11-30T20:02:16.371Z,14.50
2017-11-30T20:22:53.912Z,5.50
2017-11-30T20:43:27.855Z,9.93
2017-11-30T21:04:03.160Z,5.77
2017-11-30T21:24:40.549Z,12.30
2017-11-30T21:45:25.329Z,7.10
2017-11-30T22:06:06.126Z,15.00
2017-11-30T22:26:41.404Z,9.97
2017-11-30T22:47:19.729Z,8.87
2017-11-30T23:07:54.704Z,7.90
2017-11-30T23:28:29.055Z,6.80
2017-11-30T23:49:08.429Z,7.57
